sensor_id;sensor_type;location;lat;lon;timestamp;P1;durP1;ratioP1;P2;durP2;ratioP2
24631;SDS011;59977;48.782;9.190;2022-10-22T08:25:41;4.13;;;1.23;;
24631;SDS011;59977;48.782;9.190;2022-10-22T08:28:06;6.38;;;1.33;;
24631;SDS011;59977;48.782;9.190;2022-10-22T08:30:32;5.82;;;1.00;;
24631;SDS011;59977;48.782;9.190;2022-10-22T08:32:59;6.85;;;2.70;;
24631;SDS011;59977;48.782;9.190;2022-10-22T08:35:25;5.72;;;1.48;;
24631;SDS011;59977;48.782;9.190;2022-10-22T08:37:50;6.10;;;1.35;;
24631;SDS011;59977;48.782;9.190;2022-10-22T08:40:25;10.40;;;1.50;;
24631;SDS011;59977;48.782;9.190;2022-10-22T08:48:38;2.17;;;0.90;;
24631;SDS011;59977;48.782;9.190;2022-10-22T08:51:23;1.50;;;0.80;;
24631;SDS011;59977;48.782;9.190;2022-10-22T08:56:17;1.67;;;1.00;;
24631;SDS011;59977;48.782;9.190;2022-10-22T08:58:51;3.05;;;0.75;;
24631;SDS011;59977;48.782;9.190;2022-10-22T09:01:25;3.55;;;1.00;;
24631;SDS011;59977;48.782;9.190;2022-10-22T09:04:12;6.05;;;1.10;;
24631;SDS011;59977;48.782;9.190;2022-10-22T09:06:49;7.72;;;1.20;;
24631;SDS011;59977;48.782;9.190;2022-10-22T09:09:16;5.57;;;1.23;;
24631;SDS011;59977;48.782;9.190;2022-10-22T09:11:50;3.92;;;0.90;;
24631;SDS011;59977;48.782;9.190;2022-10-22T09:14:21;5.25;;;1.00;;
24631;SDS011;59977;48.782;9.190;2022-10-22T09:22:45;4.47;;;0.90;;
24631;SDS011;59977;48.782;9.190;2022-10-22T09:25:30;1.58;;;0.73;;
24631;SDS011;59977;48.782;9.190;2022-10-22T09:27:59;3.78;;;0.90;;
24631;SDS011;59977;48.782;9.190;2022-10-22T09:30:25;1.30;;;0.80;;
24631;SDS011;59977;48.782;9.190;2022-10-22T09:35:26;3.53;;;0.80;;
24631;SDS011;59977;48.782;9.190;2022-10-22T09:37:53;5.65;;;0.90;;
24631;SDS011;59977;48.782;9.190;2022-10-22T09:40:20;3.13;;;0.70;;
24631;SDS011;59977;48.782;9.190;2022-10-22T09:42:47;6.88;;;1.00;;
24631;SDS011;59977;48.782;9.190;2022-10-22T09:45:24;8.00;;;1.13;;
24631;SDS011;59977;48.782;9.190;2022-10-22T09:47:50;7.22;;;1.00;;
24631;SDS011;59977;48.782;9.190;2022-10-22T09:50:38;3.35;;;0.70;;
24631;SDS011;59977;48.782;9.190;2022-10-22T09:53:19;3.85;;;0.80;;
24631;SDS011;59977;48.782;9.190;2022-10-22T09:55:53;6.70;;;1.00;;
24631;SDS011;59977;48.782;9.190;2022-10-22T10:00:49;2.03;;;0.95;;
24631;SDS011;59977;48.782;9.190;2022-10-22T10:03:21;8.25;;;1.00;;
24631;SDS011;59977;48.782;9.190;2022-10-22T10:05:53;5.75;;;0.88;;
24631;SDS011;59977;48.782;9.190;2022-10-22T10:08:21;3.85;;;0.98;;
24631;SDS011;59977;48.782;9.190;2022-10-22T10:10:48;4.28;;;1.00;;
24631;SDS011;59977;48.782;9.190;2022-10-22T10:13:23;6.10;;;1.00;;
24631;SDS011;59977;48.782;9.190;2022-10-22T10:16:30;12.77;;;1.38;;
24631;SDS011;59977;48.782;9.190;2022-10-22T10:30:01;1.20;;;0.65;;
24631;SDS011;59977;48.782;9.190;2022-10-22T10:43:28;3.08;;;0.90;;
24631;SDS011;59977;48.782;9.190;2022-10-22T10:46:04;3.72;;;1.00;;
24631;SDS011;59977;48.782;9.190;2022-10-22T10:49:18;2.08;;;0.80;;
24631;SDS011;59977;48.782;9.190;2022-10-22T10:54:37;2.85;;;1.20;;
24631;SDS011;59977;48.782;9.190;2022-10-22T10:59:57;2.47;;;0.95;;
24631;SDS011;59977;48.782;9.190;2022-10-22T11:08:29;2.15;;;0.70;;
24631;SDS011;59977;48.782;9.190;2022-10-22T11:11:22;4.28;;;1.00;;
24631;SDS011;59977;48.782;9.190;2022-10-22T11:13:52;1.90;;;0.80;;
24631;SDS011;59977;48.782;9.190;2022-10-22T11:16:28;1.15;;;0.73;;
24631;SDS011;59977;48.782;9.190;2022-10-22T11:21:56;3.25;;;0.90;;
24631;SDS011;59977;48.782;9.190;2022-10-22T11:24:20;6.63;;;1.00;;
24631;SDS011;59977;48.782;9.190;2022-10-22T11:26:56;2.63;;;0.90;;
24631;SDS011;59977;48.782;9.190;2022-10-22T11:29:34;3.17;;;0.82;;
24631;SDS011;59977;48.782;9.190;2022-10-22T11:32:05;3.70;;;0.95;;
24631;SDS011;59977;48.782;9.190;2022-10-22T11:37:11;2.00;;;0.90;;
24631;SDS011;59977;48.782;9.190;2022-10-22T11:39:49;3.15;;;1.10;;
24631;SDS011;59977;48.782;9.190;2022-10-22T11:42:40;3.30;;;1.33;;
24631;SDS011;59977;48.782;9.190;2022-10-22T11:50:24;4.30;;;1.00;;
24631;SDS011;59977;48.782;9.190;2022-10-22T11:55:50;4.65;;;1.00;;
24631;SDS011;59977;48.782;9.190;2022-10-22T12:06:04;4.15;;;1.25;;
24631;SDS011;59977;48.782;9.190;2022-10-22T12:16:42;4.50;;;1.30;;
24631;SDS011;59977;48.782;9.190;2022-10-22T12:21:36;4.50;;;1.42;;
24631;SDS011;59977;48.782;9.190;2022-10-22T12:24:03;5.00;;;1.23;;
24631;SDS011;59977;48.782;9.190;2022-10-22T12:26:30;3.58;;;1.10;;
24631;SDS011;59977;48.782;9.190;2022-10-22T12:28:59;5.47;;;1.08;;
24631;SDS011;59977;48.782;9.190;2022-10-22T12:31:26;8.43;;;1.13;;
24631;SDS011;59977;48.782;9.190;2022-10-22T12:33:58;3.92;;;1.30;;
24631;SDS011;59977;48.782;9.190;2022-10-22T12:36:24;4.25;;;1.00;;
24631;SDS011;59977;48.782;9.190;2022-10-22T12:38:51;4.18;;;1.10;;
24631;SDS011;59977;48.782;9.190;2022-10-22T12:41:17;5.10;;;1.20;;
24631;SDS011;59977;48.782;9.190;2022-10-22T12:43:43;6.18;;;1.20;;
24631;SDS011;59977;48.782;9.190;2022-10-22T12:46:13;3.47;;;0.90;;
24631;SDS011;59977;48.782;9.190;2022-10-22T12:48:41;4.05;;;1.35;;
24631;SDS011;59977;48.782;9.190;2022-10-22T12:51:10;2.25;;;0.80;;
24631;SDS011;59977;48.782;9.190;2022-10-22T12:53:45;5.93;;;1.10;;
24631;SDS011;59977;48.782;9.190;2022-10-22T12:56:19;4.13;;;1.08;;
24631;SDS011;59977;48.782;9.190;2022-10-22T12:58:50;2.53;;;0.90;;
24631;SDS011;59977;48.782;9.190;2022-10-22T13:01:21;2.60;;;0.93;;
24631;SDS011;59977;48.782;9.190;2022-10-22T13:03:49;4.97;;;1.40;;
24631;SDS011;59977;48.782;9.190;2022-10-22T13:06:27;7.50;;;1.63;;
24631;SDS011;59977;48.782;9.190;2022-10-22T13:11:32;6.07;;;0.90;;
24631;SDS011;59977;48.782;9.190;2022-10-22T13:14:14;5.80;;;1.15;;
24631;SDS011;59977;48.782;9.190;2022-10-22T13:16:42;4.75;;;2.10;;
24631;SDS011;59977;48.782;9.190;2022-10-22T13:19:33;5.40;;;1.40;;
24631;SDS011;59977;48.782;9.190;2022-10-22T13:24:56;6.05;;;1.58;;
24631;SDS011;59977;48.782;9.190;2022-10-22T13:27:24;2.22;;;1.17;;
24631;SDS011;59977;48.782;9.190;2022-10-22T13:29:51;4.70;;;1.15;;
24631;SDS011;59977;48.782;9.190;2022-10-22T13:32:39;6.93;;;1.50;;
24631;SDS011;59977;48.782;9.190;2022-10-22T13:35:04;4.15;;;1.33;;
24631;SDS011;59977;48.782;9.190;2022-10-22T13:37:30;5.40;;;1.27;;
24631;SDS011;59977;48.782;9.190;2022-10-22T13:39:58;3.65;;;1.13;;
24631;SDS011;59977;48.782;9.190;2022-10-22T13:42:24;3.08;;;1.05;;
24631;SDS011;59977;48.782;9.190;2022-10-22T13:44:49;8.35;;;1.40;;
24631;SDS011;59977;48.782;9.190;2022-10-22T13:47:25;2.85;;;1.30;;
24631;SDS011;59977;48.782;9.190;2022-10-22T13:49:54;5.95;;;1.40;;
24631;SDS011;59977;48.782;9.190;2022-10-22T13:52:28;3.30;;;1.02;;
24631;SDS011;59977;48.782;9.190;2022-10-22T13:55:23;3.75;;;1.23;;
24631;SDS011;59977;48.782;9.190;2022-10-22T13:58:12;4.57;;;1.10;;
24631;SDS011;59977;48.782;9.190;2022-10-22T14:00:38;3.35;;;1.20;;
24631;SDS011;59977;48.782;9.190;2022-10-22T14:03:09;6.72;;;1.33;;
24631;SDS011;59977;48.782;9.190;2022-10-22T14:05:37;3.15;;;1.17;;
24631;SDS011;59977;48.782;9.190;2022-10-22T14:08:03;8.13;;;1.17;;
24631;SDS011;59977;48.782;9.190;2022-10-22T14:10:33;5.97;;;1.27;;
24631;SDS011;59977;48.782;9.190;2022-10-22T14:12:59;4.00;;;1.50;;
24631;SDS011;59977;48.782;9.190;2022-10-22T14:15:26;4.85;;;1.42;;
24631;SDS011;59977;48.782;9.190;2022-10-22T14:17:54;4.22;;;1.50;;
24631;SDS011;59977;48.782;9.190;2022-10-22T14:20:22;9.38;;;1.42;;
24631;SDS011;59977;48.782;9.190;2022-10-22T14:22:50;2.28;;;1.00;;
24631;SDS011;59977;48.782;9.190;2022-10-22T14:25:18;3.75;;;1.20;;
24631;SDS011;59977;48.782;9.190;2022-10-22T14:27:45;7.82;;;1.70;;
24631;SDS011;59977;48.782;9.190;2022-10-22T14:30:15;5.03;;;1.40;;
24631;SDS011;59977;48.782;9.190;2022-10-22T14:32:45;3.80;;;1.30;;
24631;SDS011;59977;48.782;9.190;2022-10-22T14:35:13;5.72;;;1.60;;
24631;SDS011;59977;48.782;9.190;2022-10-22T14:37:40;8.23;;;2.40;;
24631;SDS011;59977;48.782;9.190;2022-10-22T14:40:06;5.03;;;1.67;;
24631;SDS011;59977;48.782;9.190;2022-10-22T14:42:37;4.03;;;1.15;;
24631;SDS011;59977;48.782;9.190;2022-10-22T14:45:05;6.85;;;1.80;;
24631;SDS011;59977;48.782;9.190;2022-10-22T14:47:36;4.40;;;1.63;;
24631;SDS011;59977;48.782;9.190;2022-10-22T14:50:02;3.40;;;1.20;;
24631;SDS011;59977;48.782;9.190;2022-10-22T14:52:27;3.40;;;1.05;;
24631;SDS011;59977;48.782;9.190;2022-10-22T14:54:53;3.60;;;1.40;;
24631;SDS011;59977;48.782;9.190;2022-10-22T14:57:19;4.72;;;2.15;;
24631;SDS011;59977;48.782;9.190;2022-10-22T14:59:44;4.20;;;1.35;;
24631;SDS011;59977;48.782;9.190;2022-10-22T15:02:12;4.03;;;1.42;;
24631;SDS011;59977;48.782;9.190;2022-10-22T15:04:38;5.22;;;1.98;;
24631;SDS011;59977;48.782;9.190;2022-10-22T15:07:04;3.63;;;1.30;;
24631;SDS011;59977;48.782;9.190;2022-10-22T15:09:30;4.90;;;1.40;;
24631;SDS011;59977;48.782;9.190;2022-10-22T15:11:55;5.55;;;1.60;;
24631;SDS011;59977;48.782;9.190;2022-10-22T15:14:21;4.45;;;1.60;;
24631;SDS011;59977;48.782;9.190;2022-10-22T15:16:47;4.35;;;1.52;;
24631;SDS011;59977;48.782;9.190;2022-10-22T15:19:12;7.00;;;1.52;;
24631;SDS011;59977;48.782;9.190;2022-10-22T15:21:38;3.78;;;1.70;;
24631;SDS011;59977;48.782;9.190;2022-10-22T15:24:04;5.72;;;1.85;;
24631;SDS011;59977;48.782;9.190;2022-10-22T15:26:30;13.50;;;2.17;;
24631;SDS011;59977;48.782;9.190;2022-10-22T15:28:56;7.32;;;1.95;;
24631;SDS011;59977;48.782;9.190;2022-10-22T15:31:41;6.35;;;1.60;;
24631;SDS011;59977;48.782;9.190;2022-10-22T15:34:08;4.03;;;1.50;;
24631;SDS011;59977;48.782;9.190;2022-10-22T15:36:34;10.90;;;1.75;;
24631;SDS011;59977;48.782;9.190;2022-10-22T15:39:04;4.75;;;1.40;;
24631;SDS011;59977;48.782;9.190;2022-10-22T15:41:30;3.63;;;1.30;;
24631;SDS011;59977;48.782;9.190;2022-10-22T15:43:56;6.82;;;1.73;;
24631;SDS011;59977;48.782;9.190;2022-10-22T15:46:22;6.15;;;1.55;;
24631;SDS011;59977;48.782;9.190;2022-10-22T15:48:49;10.60;;;1.50;;
24631;SDS011;59977;48.782;9.190;2022-10-22T15:51:17;9.63;;;1.50;;
24631;SDS011;59977;48.782;9.190;2022-10-22T15:53:43;5.50;;;1.65;;
24631;SDS011;59977;48.782;9.190;2022-10-22T15:56:16;4.75;;;1.75;;
24631;SDS011;59977;48.782;9.190;2022-10-22T15:58:42;9.70;;;3.03;;
24631;SDS011;59977;48.782;9.190;2022-10-22T16:01:08;6.18;;;1.63;;
24631;SDS011;59977;48.782;9.190;2022-10-22T16:03:35;6.10;;;1.60;;
24631;SDS011;59977;48.782;9.190;2022-10-22T16:06:01;5.10;;;1.20;;
24631;SDS011;59977;48.782;9.190;2022-10-22T16:08:27;10.43;;;1.42;;
24631;SDS011;59977;48.782;9.190;2022-10-22T16:10:53;6.25;;;1.30;;
24631;SDS011;59977;48.782;9.190;2022-10-22T16:13:19;4.18;;;1.23;;
24631;SDS011;59977;48.782;9.190;2022-10-22T16:15:47;7.00;;;1.58;;
24631;SDS011;59977;48.782;9.190;2022-10-22T16:18:13;12.90;;;1.55;;
24631;SDS011;59977;48.782;9.190;2022-10-22T16:20:39;4.60;;;1.40;;
24631;SDS011;59977;48.782;9.190;2022-10-22T16:23:05;22.67;;;2.85;;
24631;SDS011;59977;48.782;9.190;2022-10-22T16:25:37;14.52;;;2.40;;
24631;SDS011;59977;48.782;9.190;2022-10-22T16:28:04;8.10;;;2.22;;
24631;SDS011;59977;48.782;9.190;2022-10-22T16:30:33;11.73;;;2.20;;
24631;SDS011;59977;48.782;9.190;2022-10-22T16:33:00;10.23;;;3.03;;
24631;SDS011;59977;48.782;9.190;2022-10-22T16:35:27;8.18;;;2.40;;
24631;SDS011;59977;48.782;9.190;2022-10-22T16:37:53;9.38;;;2.97;;
24631;SDS011;59977;48.782;9.190;2022-10-22T16:40:18;11.85;;;2.95;;
24631;SDS011;59977;48.782;9.190;2022-10-22T16:42:44;17.88;;;3.15;;
24631;SDS011;59977;48.782;9.190;2022-10-22T16:45:10;7.45;;;2.13;;
24631;SDS011;59977;48.782;9.190;2022-10-22T16:47:35;10.38;;;2.15;;
24631;SDS011;59977;48.782;9.190;2022-10-22T16:50:01;10.75;;;2.33;;
24631;SDS011;59977;48.782;9.190;2022-10-22T16:52:27;13.10;;;3.65;;
24631;SDS011;59977;48.782;9.190;2022-10-22T16:54:52;9.77;;;2.25;;
24631;SDS011;59977;48.782;9.190;2022-10-22T16:57:18;10.63;;;2.45;;
24631;SDS011;59977;48.782;9.190;2022-10-22T16:59:43;11.20;;;2.90;;
24631;SDS011;59977;48.782;9.190;2022-10-22T17:02:10;14.57;;;2.80;;
24631;SDS011;59977;48.782;9.190;2022-10-22T17:04:36;9.40;;;2.70;;
24631;SDS011;59977;48.782;9.190;2022-10-22T17:07:02;8.35;;;2.65;;
24631;SDS011;59977;48.782;9.190;2022-10-22T17:09:27;9.68;;;2.20;;
24631;SDS011;59977;48.782;9.190;2022-10-22T17:11:53;14.85;;;2.42;;
24631;SDS011;59977;48.782;9.190;2022-10-22T17:14:19;7.97;;;2.35;;
24631;SDS011;59977;48.782;9.190;2022-10-22T17:16:45;13.40;;;2.55;;
24631;SDS011;59977;48.782;9.190;2022-10-22T17:19:13;8.55;;;2.40;;
24631;SDS011;59977;48.782;9.190;2022-10-22T17:21:40;10.32;;;2.50;;
24631;SDS011;59977;48.782;9.190;2022-10-22T17:24:06;10.80;;;2.70;;
24631;SDS011;59977;48.782;9.190;2022-10-22T17:26:31;15.10;;;2.90;;
24631;SDS011;59977;48.782;9.190;2022-10-22T17:28:58;12.57;;;2.38;;
24631;SDS011;59977;48.782;9.190;2022-10-22T17:31:25;11.02;;;2.97;;
24631;SDS011;59977;48.782;9.190;2022-10-22T17:33:56;9.98;;;3.15;;
24631;SDS011;59977;48.782;9.190;2022-10-22T17:36:24;10.40;;;2.80;;
24631;SDS011;59977;48.782;9.190;2022-10-22T17:38:52;10.20;;;2.90;;
24631;SDS011;59977;48.782;9.190;2022-10-22T17:41:28;13.32;;;3.25;;
24631;SDS011;59977;48.782;9.190;2022-10-22T17:43:56;15.90;;;3.47;;
24631;SDS011;59977;48.782;9.190;2022-10-22T17:46:26;9.50;;;3.05;;
24631;SDS011;59977;48.782;9.190;2022-10-22T17:48:58;12.70;;;3.05;;
24631;SDS011;59977;48.782;9.190;2022-10-22T17:51:25;8.50;;;3.03;;
24631;SDS011;59977;48.782;9.190;2022-10-22T17:53:52;10.32;;;3.05;;
24631;SDS011;59977;48.782;9.190;2022-10-22T17:56:22;13.20;;;3.30;;
24631;SDS011;59977;48.782;9.190;2022-10-22T17:58:50;11.18;;;3.55;;
24631;SDS011;59977;48.782;9.190;2022-10-22T18:03:50;11.02;;;3.20;;
24631;SDS011;59977;48.782;9.190;2022-10-22T18:06:16;14.27;;;4.20;;
24631;SDS011;59977;48.782;9.190;2022-10-22T18:08:42;13.10;;;4.20;;
24631;SDS011;59977;48.782;9.190;2022-10-22T18:11:09;9.90;;;3.80;;
24631;SDS011;59977;48.782;9.190;2022-10-22T18:13:36;16.77;;;4.63;;
24631;SDS011;59977;48.782;9.190;2022-10-22T18:16:02;15.38;;;4.57;;
24631;SDS011;59977;48.782;9.190;2022-10-22T18:18:28;11.18;;;4.38;;
24631;SDS011;59977;48.782;9.190;2022-10-22T18:20:54;29.88;;;12.40;;
24631;SDS011;59977;48.782;9.190;2022-10-22T18:23:20;19.20;;;4.50;;
24631;SDS011;59977;48.782;9.190;2022-10-22T18:25:46;7.03;;;3.70;;
24631;SDS011;59977;48.782;9.190;2022-10-22T18:28:13;14.30;;;3.75;;
24631;SDS011;59977;48.782;9.190;2022-10-22T18:30:40;14.52;;;3.47;;
24631;SDS011;59977;48.782;9.190;2022-10-22T18:33:06;16.25;;;3.33;;
24631;SDS011;59977;48.782;9.190;2022-10-22T18:35:33;9.98;;;3.47;;
24631;SDS011;59977;48.782;9.190;2022-10-22T18:37:59;17.88;;;5.95;;
24631;SDS011;59977;48.782;9.190;2022-10-22T18:40:24;10.95;;;3.50;;
24631;SDS011;59977;48.782;9.190;2022-10-22T18:42:50;18.40;;;4.40;;
24631;SDS011;59977;48.782;9.190;2022-10-22T18:45:15;13.30;;;4.28;;
24631;SDS011;59977;48.782;9.190;2022-10-22T18:47:41;19.60;;;5.20;;
24631;SDS011;59977;48.782;9.190;2022-10-22T18:50:07;12.93;;;6.55;;
24631;SDS011;59977;48.782;9.190;2022-10-22T18:52:33;16.25;;;5.68;;
24631;SDS011;59977;48.782;9.190;2022-10-22T18:54:59;13.30;;;5.00;;
24631;SDS011;59977;48.782;9.190;2022-10-22T18:57:25;12.20;;;4.07;;
24631;SDS011;59977;48.782;9.190;2022-10-22T18:59:50;11.43;;;4.38;;
24631;SDS011;59977;48.782;9.190;2022-10-22T19:02:16;15.55;;;4.15;;
24631;SDS011;59977;48.782;9.190;2022-10-22T19:04:42;23.05;;;4.30;;
24631;SDS011;59977;48.782;9.190;2022-10-22T19:07:08;11.32;;;4.10;;
24631;SDS011;59977;48.782;9.190;2022-10-22T19:09:34;45.97;;;17.20;;
24631;SDS011;59977;48.782;9.190;2022-10-22T19:12:00;103.28;;;40.85;;
24631;SDS011;59977;48.782;9.190;2022-10-22T19:14:26;66.50;;;24.60;;
24631;SDS011;59977;48.782;9.190;2022-10-22T19:16:51;48.03;;;15.70;;
24631;SDS011;59977;48.782;9.190;2022-10-22T19:19:18;22.30;;;8.10;;
24631;SDS011;59977;48.782;9.190;2022-10-22T19:21:45;21.05;;;5.75;;
24631;SDS011;59977;48.782;9.190;2022-10-22T19:24:11;9.20;;;3.70;;
24631;SDS011;59977;48.782;9.190;2022-10-22T19:26:39;14.02;;;3.63;;
24631;SDS011;59977;48.782;9.190;2022-10-22T19:29:04;11.02;;;3.13;;
24631;SDS011;59977;48.782;9.190;2022-10-22T19:31:30;9.32;;;3.40;;
24631;SDS011;59977;48.782;9.190;2022-10-22T19:33:56;12.77;;;4.82;;
24631;SDS011;59977;48.782;9.190;2022-10-22T19:36:23;16.15;;;4.03;;
24631;SDS011;59977;48.782;9.190;2022-10-22T19:38:49;11.13;;;4.57;;
24631;SDS011;59977;48.782;9.190;2022-10-22T19:41:16;15.20;;;6.07;;
24631;SDS011;59977;48.782;9.190;2022-10-22T19:43:43;17.23;;;7.18;;
24631;SDS011;59977;48.782;9.190;2022-10-22T19:46:10;15.05;;;7.60;;
24631;SDS011;59977;48.782;9.190;2022-10-22T19:48:36;15.30;;;6.60;;
24631;SDS011;59977;48.782;9.190;2022-10-22T19:51:03;22.05;;;7.13;;
24631;SDS011;59977;48.782;9.190;2022-10-22T19:53:32;16.08;;;6.80;;
24631;SDS011;59977;48.782;9.190;2022-10-22T19:55:59;23.02;;;7.57;;
24631;SDS011;59977;48.782;9.190;2022-10-22T19:58:25;21.98;;;7.70;;
24631;SDS011;59977;48.782;9.190;2022-10-22T20:00:52;17.60;;;7.85;;
24631;SDS011;59977;48.782;9.190;2022-10-22T20:03:18;24.48;;;9.18;;
24631;SDS011;59977;48.782;9.190;2022-10-22T20:05:44;22.77;;;8.77;;
24631;SDS011;59977;48.782;9.190;2022-10-22T20:08:10;21.40;;;7.90;;
24631;SDS011;59977;48.782;9.190;2022-10-22T20:10:36;26.70;;;8.50;;
24631;SDS011;59977;48.782;9.190;2022-10-22T20:13:02;18.58;;;8.30;;
24631;SDS011;59977;48.782;9.190;2022-10-22T20:15:29;25.35;;;9.18;;
24631;SDS011;59977;48.782;9.190;2022-10-22T20:17:56;20.38;;;8.68;;
24631;SDS011;59977;48.782;9.190;2022-10-22T20:20:21;21.65;;;8.52;;
24631;SDS011;59977;48.782;9.190;2022-10-22T20:22:47;23.05;;;7.63;;
24631;SDS011;59977;48.782;9.190;2022-10-22T20:25:12;18.90;;;7.60;;
24631;SDS011;59977;48.782;9.190;2022-10-22T20:27:38;31.00;;;8.43;;
24631;SDS011;59977;48.782;9.190;2022-10-22T20:30:04;18.67;;;7.53;;
24631;SDS011;59977;48.782;9.190;2022-10-22T20:32:31;22.15;;;7.30;;
24631;SDS011;59977;48.782;9.190;2022-10-22T20:35:00;16.92;;;8.60;;
24631;SDS011;59977;48.782;9.190;2022-10-22T20:37:26;30.63;;;9.90;;
24631;SDS011;59977;48.782;9.190;2022-10-22T20:39:52;28.05;;;12.77;;
24631;SDS011;59977;48.782;9.190;2022-10-22T20:42:17;24.23;;;9.02;;
24631;SDS011;59977;48.782;9.190;2022-10-22T20:44:43;21.42;;;8.90;;
24631;SDS011;59977;48.782;9.190;2022-10-22T20:47:08;17.05;;;7.00;;
24631;SDS011;59977;48.782;9.190;2022-10-22T20:49:36;17.13;;;7.68;;
24631;SDS011;59977;48.782;9.190;2022-10-22T20:52:02;26.15;;;8.50;;
24631;SDS011;59977;48.782;9.190;2022-10-22T20:54:28;28.52;;;8.85;;
24631;SDS011;59977;48.782;9.190;2022-10-22T20:56:54;21.70;;;8.85;;
24631;SDS011;59977;48.782;9.190;2022-10-22T20:59:19;22.52;;;8.90;;
24631;SDS011;59977;48.782;9.190;2022-10-22T21:01:47;20.63;;;8.38;;
24631;SDS011;59977;48.782;9.190;2022-10-22T21:04:14;28.15;;;9.00;;
24631;SDS011;59977;48.782;9.190;2022-10-22T21:06:41;26.02;;;8.80;;
24631;SDS011;59977;48.782;9.190;2022-10-22T21:09:10;28.30;;;8.77;;
24631;SDS011;59977;48.782;9.190;2022-10-22T21:11:37;21.08;;;8.52;;
24631;SDS011;59977;48.782;9.190;2022-10-22T21:14:05;23.13;;;9.15;;
24631;SDS011;59977;48.782;9.190;2022-10-22T21:16:31;31.65;;;8.52;;
24631;SDS011;59977;48.782;9.190;2022-10-22T21:18:57;22.67;;;8.60;;
24631;SDS011;59977;48.782;9.190;2022-10-22T21:21:23;20.63;;;7.40;;
24631;SDS011;59977;48.782;9.190;2022-10-22T21:23:49;19.25;;;6.45;;
24631;SDS011;59977;48.782;9.190;2022-10-22T21:26:16;25.02;;;7.63;;
24631;SDS011;59977;48.782;9.190;2022-10-22T21:28:42;17.63;;;5.60;;
24631;SDS011;59977;48.782;9.190;2022-10-22T21:31:08;21.92;;;6.97;;
24631;SDS011;59977;48.782;9.190;2022-10-22T21:33:38;14.15;;;5.32;;
24631;SDS011;59977;48.782;9.190;2022-10-22T21:36:04;18.52;;;5.70;;
24631;SDS011;59977;48.782;9.190;2022-10-22T21:38:31;16.67;;;5.88;;
24631;SDS011;59977;48.782;9.190;2022-10-22T21:40:57;14.35;;;5.32;;
24631;SDS011;59977;48.782;9.190;2022-10-22T21:43:22;20.27;;;5.47;;
24631;SDS011;59977;48.782;9.190;2022-10-22T21:45:48;18.77;;;5.43;;
24631;SDS011;59977;48.782;9.190;2022-10-22T21:48:14;22.20;;;5.35;;
24631;SDS011;59977;48.782;9.190;2022-10-22T21:50:40;24.77;;;5.68;;
24631;SDS011;59977;48.782;9.190;2022-10-22T21:53:07;16.33;;;5.10;;
24631;SDS011;59977;48.782;9.190;2022-10-22T21:55:39;15.45;;;5.40;;
24631;SDS011;59977;48.782;9.190;2022-10-22T21:58:05;23.42;;;6.18;;
24631;SDS011;59977;48.782;9.190;2022-10-22T22:00:31;22.08;;;7.68;;
24631;SDS011;59977;48.782;9.190;2022-10-22T22:02:57;15.05;;;6.50;;
24631;SDS011;59977;48.782;9.190;2022-10-22T22:05:23;18.17;;;7.43;;
24631;SDS011;59977;48.782;9.190;2022-10-22T22:07:49;20.80;;;6.72;;
24631;SDS011;59977;48.782;9.190;2022-10-22T22:10:14;33.90;;;14.00;;
24631;SDS011;59977;48.782;9.190;2022-10-22T22:12:40;36.83;;;15.98;;
24631;SDS011;59977;48.782;9.190;2022-10-22T22:15:06;29.35;;;9.52;;
24631;SDS011;59977;48.782;9.190;2022-10-22T22:17:32;15.30;;;7.43;;
24631;SDS011;59977;48.782;9.190;2022-10-22T22:19:57;16.38;;;6.90;;
24631;SDS011;59977;48.782;9.190;2022-10-22T22:22:23;15.32;;;7.03;;
24631;SDS011;59977;48.782;9.190;2022-10-22T22:24:49;17.15;;;5.95;;
24631;SDS011;59977;48.782;9.190;2022-10-22T22:27:14;12.45;;;5.53;;
24631;SDS011;59977;48.782;9.190;2022-10-22T22:29:41;17.58;;;5.68;;
